createdAt,value
2023-04-28T00:01:31.086Z,9.32
2023-04-28T00:03:58.919Z,9.32
2023-04-28T00:06:26.212Z,9.36
2023-04-28T00:08:53.059Z,9.33
2023-04-28T00:11:20.040Z,9.32
2023-04-28T00:13:46.873Z,9.33
2023-04-28T00:16:13.722Z,9.30
2023-04-28T00:18:40.539Z,9.29
2023-04-28T00:21:08.759Z,9.29
2023-04-28T00:23:35.621Z,9.24
2023-04-28T00:26:02.509Z,9.22
2023-04-28T00:30:59.387Z,9.21
2023-04-28T00:33:26.202Z,9.19
2023-04-28T00:35:59.945Z,9.14
2023-04-28T00:38:27.227Z,9.15
2023-04-28T00:40:54.166Z,9.13
2023-04-28T00:43:20.996Z,9.18
2023-04-28T00:45:52.499Z,9.21
2023-04-28T00:48:20.126Z,9.17
2023-04-28T00:50:48.404Z,9.14
2023-04-28T00:53:15.444Z,9.11
2023-04-28T00:55:42.312Z,9.06
2023-04-28T00:58:09.769Z,9.07
2023-04-28T01:00:36.915Z,9.10
2023-04-28T01:03:03.925Z,9.10
2023-04-28T01:05:34.425Z,9.09
2023-04-28T01:08:01.735Z,9.12
2023-04-28T01:10:28.724Z,9.09
2023-04-28T01:12:57.358Z,9.11
2023-04-28T01:15:24.752Z,9.12
2023-04-28T01:17:54.195Z,9.10
2023-04-28T01:20:21.371Z,9.11
2023-04-28T01:22:48.285Z,9.14
2023-04-28T01:25:15.336Z,9.08
2023-04-28T01:27:42.234Z,9.10
2023-04-28T01:30:09.506Z,9.09
2023-04-28T01:32:37.401Z,9.07
2023-04-28T01:35:04.648Z,9.10
2023-04-28T01:37:34.786Z,9.04
2023-04-28T01:40:01.742Z,9.02
2023-04-28T01:42:28.631Z,9.01
2023-04-28T01:44:55.657Z,9.04
2023-04-28T01:47:22.516Z,8.99
2023-04-28T01:49:50.443Z,9.00
2023-04-28T01:52:19.774Z,9.02
2023-04-28T01:54:47.256Z,8.92
2023-04-28T01:57:15.455Z,8.93
2023-04-28T01:59:44.543Z,8.89
2023-04-28T02:02:11.787Z,8.98
2023-04-28T02:04:39.891Z,8.90
2023-04-28T02:07:07.646Z,8.96
2023-04-28T02:09:34.574Z,8.89
2023-04-28T02:12:02.463Z,8.85
2023-04-28T02:14:32.329Z,8.93
2023-04-28T02:16:59.773Z,8.86
2023-04-28T02:19:26.805Z,8.89
2023-04-28T02:21:53.709Z,8.79
2023-04-28T02:24:20.532Z,8.83
2023-04-28T02:26:47.513Z,8.85
2023-04-28T02:29:14.363Z,8.81
2023-04-28T02:31:41.533Z,8.74
2023-04-28T02:34:08.346Z,8.72
2023-04-28T02:36:35.202Z,8.72
2023-04-28T02:39:02.199Z,8.74
2023-04-28T02:41:31.208Z,8.74
2023-04-28T02:43:58.051Z,8.75
2023-04-28T02:46:25.130Z,8.72
2023-04-28T02:48:51.997Z,8.71
2023-04-28T02:51:19.020Z,8.72
2023-04-28T02:53:45.944Z,8.65
2023-04-28T02:56:13.016Z,8.63
2023-04-28T02:58:39.895Z,8.65
2023-04-28T03:01:06.979Z,8.68
2023-04-28T03:03:34.801Z,8.63
2023-04-28T03:06:02.154Z,8.58
2023-04-28T03:08:29.123Z,8.59
2023-04-28T03:10:56.664Z,8.56
2023-04-28T03:13:23.629Z,8.63
2023-04-28T03:15:51.056Z,8.60
2023-04-28T03:18:18.724Z,8.53
2023-04-28T03:20:45.620Z,8.54
2023-04-28T03:23:12.414Z,8.54
2023-04-28T03:25:39.328Z,8.51
2023-04-28T03:28:06.444Z,8.52
2023-04-28T03:30:33.386Z,8.51
2023-04-28T03:33:00.238Z,8.50
2023-04-28T03:35:27.841Z,8.47
2023-04-28T03:37:54.747Z,8.42
2023-04-28T03:40:21.717Z,8.38
2023-04-28T03:43:20.732Z,8.43
2023-04-28T03:46:06.283Z,8.44
2023-04-28T03:48:33.685Z,8.44
2023-04-28T03:51:00.584Z,8.43
2023-04-28T03:53:27.764Z,8.45
2023-04-28T03:55:54.783Z,8.43
2023-04-28T03:58:21.583Z,8.50
2023-04-28T04:00:48.473Z,8.52
2023-04-28T04:03:15.412Z,8.48
2023-04-28T04:05:44.110Z,8.48
2023-04-28T04:08:11.394Z,8.44
2023-04-28T04:10:38.328Z,8.44
2023-04-28T04:13:05.396Z,8.51
2023-04-28T04:15:32.587Z,8.48
2023-04-28T04:17:59.592Z,8.48
2023-04-28T04:20:30.676Z,8.44
2023-04-28T04:22:57.527Z,8.43
2023-04-28T04:25:24.314Z,8.41
2023-04-28T04:27:52.695Z,8.37
2023-04-28T04:30:19.493Z,8.41
2023-04-28T04:32:46.455Z,8.38
2023-04-28T04:35:14.153Z,8.41
2023-04-28T04:37:41.111Z,8.35
2023-04-28T04:40:08.909Z,8.34
2023-04-28T04:42:42.860Z,8.32
2023-04-28T04:45:13.606Z,8.35
2023-04-28T04:47:42.209Z,8.37
2023-04-28T04:50:09.545Z,8.33
2023-04-28T04:52:36.363Z,8.31
2023-04-28T04:55:05.133Z,8.35
2023-04-28T04:57:33.144Z,8.33
2023-04-28T05:00:06.620Z,8.35
2023-04-28T05:02:33.800Z,8.28
2023-04-28T05:05:16.746Z,8.12
2023-04-28T05:07:50.736Z,7.90
2023-04-28T05:10:17.822Z,7.69
2023-04-28T05:12:46.211Z,7.39
2023-04-28T05:15:17.619Z,7.11
2023-04-28T05:17:57.316Z,6.96
2023-04-28T05:20:24.562Z,6.87
2023-04-28T05:22:51.663Z,6.81
2023-04-28T05:25:18.600Z,6.76
2023-04-28T05:27:45.402Z,6.76
2023-04-28T05:30:12.682Z,6.68
2023-04-28T05:32:39.569Z,6.73
2023-04-28T05:35:07.127Z,6.73
2023-04-28T05:37:34.240Z,6.65
2023-04-28T05:40:01.120Z,6.68
2023-04-28T05:42:28.175Z,6.70
2023-04-28T05:44:55.525Z,6.68
2023-04-28T05:47:22.749Z,6.71
2023-04-28T05:49:50.422Z,6.85
2023-04-28T05:52:17.387Z,6.78
2023-04-28T05:54:44.255Z,6.87
2023-04-28T05:57:11.295Z,6.93
2023-04-28T05:59:39.254Z,6.94
2023-04-28T06:02:06.417Z,7.05
2023-04-28T06:04:33.765Z,7.11
2023-04-28T06:07:01.298Z,7.13
2023-04-28T06:09:28.324Z,7.13
2023-04-28T06:11:55.611Z,7.18
2023-04-28T06:14:23.386Z,7.23
2023-04-28T06:16:51.144Z,7.33
2023-04-28T06:19:19.133Z,7.40
2023-04-28T06:21:47.211Z,7.49
2023-04-28T06:24:14.605Z,7.56
2023-04-28T06:26:43.988Z,7.67
2023-04-28T06:29:11.438Z,7.69
2023-04-28T06:31:38.424Z,7.70
2023-04-28T06:34:05.355Z,7.70
2023-04-28T06:36:33.363Z,7.81
2023-04-28T06:39:00.921Z,7.82
2023-04-28T06:41:29.306Z,7.89
2023-04-28T06:43:57.946Z,7.91
2023-04-28T06:46:27.219Z,7.90
2023-04-28T06:48:54.109Z,7.89
2023-04-28T06:51:20.858Z,7.90
2023-04-28T06:53:48.066Z,7.97
2023-04-28T06:56:14.883Z,8.03
2023-04-28T06:58:41.861Z,8.13
2023-04-28T07:01:08.703Z,8.19
2023-04-28T07:03:36.271Z,8.30
2023-04-28T07:06:03.838Z,8.39
2023-04-28T07:08:31.014Z,8.33
2023-04-28T07:10:58.228Z,8.32
2023-04-28T07:13:25.499Z,8.27
2023-04-28T07:15:52.463Z,8.27
2023-04-28T07:18:19.711Z,8.34
2023-04-28T07:20:46.797Z,8.45
2023-04-28T07:23:13.840Z,8.52
2023-04-28T07:25:41.425Z,8.46
2023-04-28T07:28:08.353Z,8.50
2023-04-28T07:30:35.698Z,8.57
2023-04-28T07:33:02.943Z,8.56
2023-04-28T07:35:29.805Z,8.52
2023-04-28T07:37:58.094Z,8.61
2023-04-28T07:40:25.831Z,8.60
2023-04-28T07:42:53.128Z,8.60
2023-04-28T07:45:20.495Z,8.64
2023-04-28T07:47:47.469Z,8.69
2023-04-28T07:50:14.487Z,8.74
2023-04-28T07:52:41.526Z,8.82
2023-04-28T07:55:08.778Z,8.93
2023-04-28T07:57:36.415Z,8.86
2023-04-28T08:00:04.002Z,8.89
2023-04-28T08:02:38.966Z,8.87
2023-04-28T08:05:07.957Z,8.88
2023-04-28T08:07:37.302Z,8.90
2023-04-28T08:10:05.106Z,8.97
2023-04-28T08:12:32.806Z,9.04
2023-04-28T08:14:59.691Z,9.02
2023-04-28T08:17:27.086Z,9.16
2023-04-28T08:19:54.061Z,9.14
2023-04-28T08:22:21.405Z,9.32
2023-04-28T08:24:48.192Z,9.27
2023-04-28T08:27:15.353Z,9.34
2023-04-28T08:29:42.298Z,9.40
2023-04-28T08:32:09.394Z,9.29
2023-04-28T08:34:36.229Z,9.34
2023-04-28T08:37:03.301Z,9.43
2023-04-28T08:39:31.449Z,9.40
2023-04-28T08:41:58.347Z,9.32
2023-04-28T08:44:25.134Z,9.48
2023-04-28T08:46:54.697Z,9.62
2023-04-28T08:49:24.020Z,9.50
2023-04-28T08:51:57.588Z,9.68
2023-04-28T08:54:30.019Z,9.88
2023-04-28T08:56:57.287Z,9.92
2023-04-28T08:59:24.513Z,9.79
2023-04-28T09:01:51.935Z,9.85
2023-04-28T09:04:19.914Z,10.03
2023-04-28T09:06:47.810Z,10.04
2023-04-28T09:09:35.672Z,10.28
2023-04-28T09:12:05.301Z,10.49
2023-04-28T09:14:34.951Z,10.34
2023-04-28T09:17:03.208Z,10.56
2023-04-28T09:19:36.288Z,10.57
2023-04-28T09:22:17.581Z,10.65
2023-04-28T09:24:55.661Z,10.76
2023-04-28T09:27:29.888Z,10.79
2023-04-28T09:29:57.471Z,10.67
2023-04-28T09:32:26.165Z,10.78
2023-04-28T09:34:57.219Z,10.66
2023-04-28T09:37:32.087Z,10.75
2023-04-28T09:40:06.936Z,10.74
2023-04-28T09:42:41.831Z,10.81
2023-04-28T09:45:11.096Z,11.06
2023-04-28T09:47:48.484Z,11.08
2023-04-28T09:50:17.730Z,11.26
2023-04-28T09:52:49.867Z,11.31
2023-04-28T09:55:17.958Z,11.22
2023-04-28T09:57:45.806Z,11.16
2023-04-28T10:00:15.140Z,11.02
2023-04-28T10:02:44.121Z,11.10
2023-04-28T10:05:12.325Z,11.15
2023-04-28T10:07:40.403Z,11.29
2023-04-28T10:10:08.668Z,11.36
2023-04-28T10:12:39.130Z,11.39
2023-04-28T10:15:08.722Z,11.36
2023-04-28T10:17:36.808Z,11.58
2023-04-28T10:20:05.756Z,11.62
2023-04-28T10:22:47.958Z,11.52
2023-04-28T10:25:15.851Z,11.53
2023-04-28T10:27:46.114Z,11.61
2023-04-28T10:30:28.298Z,11.52
2023-04-28T10:33:23.500Z,11.65
2023-04-28T10:35:51.061Z,11.67
2023-04-28T10:38:21.750Z,11.72
2023-04-28T10:40:53.031Z,11.78
2023-04-28T10:43:27.441Z,11.86
2023-04-28T10:45:57.559Z,11.86
2023-04-28T10:48:34.726Z,11.90
2023-04-28T10:51:09.948Z,11.88
2023-04-28T10:53:47.123Z,11.88
2023-04-28T10:56:20.029Z,11.88
2023-04-28T10:58:51.098Z,11.88
2023-04-28T11:01:32.373Z,11.99
2023-04-28T11:04:02.977Z,11.95
2023-04-28T11:06:41.778Z,12.02
2023-04-28T11:09:15.146Z,12.16
2023-04-28T11:11:56.547Z,12.20
2023-04-28T11:14:23.416Z,12.43
2023-04-28T11:16:52.201Z,12.70
2023-04-28T11:19:20.752Z,12.81
2023-04-28T11:21:48.466Z,12.92
2023-04-28T11:24:15.852Z,12.90
2023-04-28T11:26:45.100Z,12.87
2023-04-28T11:29:13.075Z,12.94
2023-04-28T11:31:40.747Z,12.89
2023-04-28T11:34:14.887Z,12.83
2023-04-28T11:36:43.225Z,12.76
2023-04-28T11:39:12.190Z,12.80
2023-04-28T11:41:41.569Z,12.87
2023-04-28T11:44:19.013Z,12.84
2023-04-28T11:46:48.146Z,12.85
2023-04-28T11:49:15.887Z,12.73
2023-04-28T11:51:45.227Z,12.67
2023-04-28T11:54:14.708Z,12.53
2023-04-28T11:56:43.133Z,12.45
2023-04-28T11:59:12.480Z,12.42
2023-04-28T12:01:51.079Z,12.44
2023-04-28T12:04:40.832Z,12.47
2023-04-28T12:07:13.588Z,12.55
2023-04-28T12:09:48.718Z,12.58
2023-04-28T12:12:40.253Z,12.60
2023-04-28T12:15:13.073Z,12.56
2023-04-28T12:17:42.060Z,12.47
2023-04-28T12:20:11.816Z,12.50
2023-04-28T12:22:49.936Z,12.50
2023-04-28T12:25:18.723Z,12.45
2023-04-28T12:28:03.048Z,12.52
2023-04-28T12:30:32.987Z,12.44
2023-04-28T12:33:00.487Z,12.40
2023-04-28T12:35:28.563Z,12.44
2023-04-28T12:37:56.631Z,12.31
2023-04-28T12:40:24.587Z,12.37
2023-04-28T12:42:51.651Z,12.34
2023-04-28T12:45:20.385Z,12.37
2023-04-28T12:47:49.559Z,12.25
2023-04-28T12:50:16.890Z,12.10
2023-04-28T12:52:43.544Z,12.11
2023-04-28T12:55:10.785Z,11.98
2023-04-28T12:57:39.523Z,12.06
2023-04-28T13:00:08.743Z,12.04
2023-04-28T13:02:36.314Z,12.01
2023-04-28T13:05:03.864Z,11.95
2023-04-28T13:07:32.065Z,12.00
2023-04-28T13:09:59.540Z,11.98
2023-04-28T13:12:26.790Z,12.01
2023-04-28T13:14:54.139Z,12.07
2023-04-28T13:17:22.154Z,12.05
2023-04-28T13:19:49.364Z,12.15
2023-04-28T13:22:16.977Z,12.09
2023-04-28T13:24:44.646Z,12.04
2023-04-28T13:27:11.701Z,12.17
2023-04-28T13:29:38.609Z,12.13
2023-04-28T13:32:06.064Z,12.22
2023-04-28T13:34:33.407Z,12.43
2023-04-28T13:37:00.181Z,12.66
2023-04-28T13:39:27.133Z,12.75
2023-04-28T13:41:53.829Z,12.61
2023-04-28T13:44:21.232Z,12.79
2023-04-28T13:46:48.015Z,12.86
2023-04-28T13:49:15.631Z,12.93
2023-04-28T13:51:43.106Z,12.86
2023-04-28T13:54:11.718Z,12.77
2023-04-28T13:56:38.902Z,12.86
2023-04-28T13:59:06.562Z,12.84
2023-04-28T14:01:34.096Z,12.78
2023-04-28T14:04:01.897Z,12.81
2023-04-28T14:06:29.174Z,12.83
2023-04-28T14:08:56.008Z,13.01
2023-04-28T14:11:23.035Z,13.09
2023-04-28T14:13:51.018Z,13.31
2023-04-28T14:16:18.020Z,13.30
2023-04-28T14:18:44.844Z,13.35
2023-04-28T14:21:12.316Z,13.22
2023-04-28T14:23:39.531Z,13.20
2023-04-28T14:26:07.614Z,13.21
2023-04-28T14:28:35.045Z,13.15
2023-04-28T14:31:07.550Z,12.92
2023-04-28T14:33:34.778Z,12.87
2023-04-28T14:36:02.572Z,12.92
2023-04-28T14:38:30.950Z,12.82
2023-04-28T14:40:58.117Z,12.70
2023-04-28T14:43:26.000Z,12.60
2023-04-28T14:45:53.128Z,12.51
2023-04-28T14:48:20.459Z,12.38
2023-04-28T14:50:47.723Z,12.32
2023-04-28T14:53:14.832Z,12.29
2023-04-28T14:55:41.657Z,12.33
2023-04-28T14:58:08.599Z,12.33
2023-04-28T15:00:36.120Z,12.31
2023-04-28T15:03:03.306Z,12.22
2023-04-28T15:05:30.349Z,12.14
2023-04-28T15:07:57.647Z,12.07
2023-04-28T15:10:24.842Z,12.00
2023-04-28T15:12:51.913Z,11.88
2023-04-28T15:15:18.911Z,11.83
2023-04-28T15:17:45.976Z,11.87
2023-04-28T15:20:13.035Z,11.92
2023-04-28T15:22:39.906Z,11.86
2023-04-28T15:25:07.619Z,11.72
2023-04-28T15:27:34.416Z,11.69
2023-04-28T15:30:01.594Z,11.63
2023-04-28T15:32:30.462Z,11.62
2023-04-28T15:34:57.719Z,11.64
2023-04-28T15:37:40.165Z,11.54
2023-04-28T15:40:09.175Z,11.61
2023-04-28T15:42:37.174Z,11.63
2023-04-28T15:45:04.915Z,11.73
2023-04-28T15:47:33.431Z,11.74
2023-04-28T15:50:00.518Z,11.67
2023-04-28T15:52:27.889Z,11.63
2023-04-28T15:54:56.076Z,11.61
2023-04-28T15:57:23.216Z,11.61
2023-04-28T15:59:51.814Z,11.56
2023-04-28T16:02:19.136Z,11.55
2023-04-28T16:04:47.039Z,11.58
2023-04-28T16:07:14.365Z,11.49
2023-04-28T16:09:41.368Z,11.51
2023-04-28T16:12:08.905Z,11.45
2023-04-28T16:14:36.600Z,11.42
2023-04-28T16:17:03.594Z,11.36
2023-04-28T16:19:30.710Z,11.33
2023-04-28T16:21:58.152Z,11.34
2023-04-28T16:24:25.295Z,11.36
2023-04-28T16:26:52.503Z,11.25
2023-04-28T16:29:19.501Z,11.24
2023-04-28T16:31:46.563Z,11.22
2023-04-28T16:34:13.700Z,11.27
2023-04-28T16:36:41.561Z,11.26
2023-04-28T16:39:09.515Z,11.26
2023-04-28T16:41:37.539Z,11.30
2023-04-28T16:44:04.420Z,11.27
2023-04-28T16:46:31.424Z,11.27
2023-04-28T16:48:58.419Z,11.30
2023-04-28T16:51:25.380Z,11.23
2023-04-28T16:53:52.339Z,11.22
2023-04-28T16:56:19.250Z,11.28
2023-04-28T16:58:46.213Z,11.28
2023-04-28T17:01:13.276Z,11.28
2023-04-28T17:03:42.260Z,11.27
2023-04-28T17:06:09.478Z,11.28
2023-04-28T17:08:36.569Z,11.28
2023-04-28T17:11:06.929Z,11.31
2023-04-28T17:13:34.365Z,11.38
2023-04-28T17:16:01.793Z,11.39
2023-04-28T17:18:28.951Z,11.40
2023-04-28T17:20:56.356Z,11.36
2023-04-28T17:23:23.378Z,11.36
2023-04-28T17:25:50.699Z,11.34
2023-04-28T17:28:17.571Z,11.31
2023-04-28T17:30:47.433Z,11.27
2023-04-28T17:33:15.253Z,11.14
2023-04-28T17:35:42.442Z,11.11
2023-04-28T17:38:09.378Z,10.97
2023-04-28T17:40:36.948Z,10.96
2023-04-28T17:43:04.359Z,10.92
2023-04-28T17:45:31.468Z,10.92
2023-04-28T17:48:00.680Z,10.82
2023-04-28T17:50:28.262Z,10.82
2023-04-28T17:52:55.100Z,10.79
2023-04-28T17:55:22.359Z,10.74
2023-04-28T17:57:49.329Z,10.70
2023-04-28T18:00:16.288Z,10.65
2023-04-28T18:02:43.412Z,10.66
2023-04-28T18:05:10.654Z,10.62
2023-04-28T18:07:39.373Z,10.61
2023-04-28T18:10:06.498Z,10.62
2023-04-28T18:12:33.549Z,10.62
2023-04-28T18:15:01.472Z,10.56
2023-04-28T18:17:28.365Z,10.49
2023-04-28T18:19:57.119Z,10.47
2023-04-28T18:22:24.093Z,10.40
2023-04-28T18:24:51.347Z,10.34
2023-04-28T18:27:19.383Z,10.33
2023-04-28T18:29:46.461Z,10.27
2023-04-28T18:32:15.042Z,10.23
2023-04-28T18:34:43.650Z,10.17
2023-04-28T18:37:10.916Z,10.16
2023-04-28T18:39:37.814Z,10.12
2023-04-28T18:42:04.835Z,10.03
2023-04-28T18:44:31.725Z,10.02
2023-04-28T18:47:00.296Z,10.01
2023-04-28T18:49:30.188Z,10.03
2023-04-28T18:51:57.480Z,9.93
2023-04-28T18:54:26.967Z,9.92
2023-04-28T18:56:54.316Z,9.83
2023-04-28T18:59:21.203Z,9.78
2023-04-28T19:01:48.159Z,9.75
2023-04-28T19:04:15.131Z,9.71
2023-04-28T19:06:44.061Z,9.69
2023-04-28T19:09:10.981Z,9.72
2023-04-28T19:11:37.779Z,9.73
2023-04-28T19:14:05.486Z,9.72
2023-04-28T19:16:32.552Z,9.64
2023-04-28T19:18:59.406Z,9.65
2023-04-28T19:21:27.028Z,9.64
2023-04-28T19:23:54.085Z,9.64
2023-04-28T19:26:20.940Z,9.66
2023-04-28T19:28:47.918Z,9.66
2023-04-28T19:31:15.715Z,9.64
2023-04-28T19:33:42.538Z,9.62
2023-04-28T19:36:10.340Z,9.57
2023-04-28T19:38:40.482Z,9.57
2023-04-28T19:41:07.424Z,9.52
2023-04-28T19:43:37.381Z,9.48
2023-04-28T19:46:04.488Z,9.49
2023-04-28T19:48:31.489Z,9.43
2023-04-28T19:50:58.650Z,9.44
2023-04-28T19:53:25.711Z,9.46
2023-04-28T19:55:52.734Z,9.42
2023-04-28T19:58:19.619Z,9.39
2023-04-28T20:00:48.076Z,9.37
2023-04-28T20:03:15.080Z,9.34
2023-04-28T20:05:42.488Z,9.34
2023-04-28T20:08:09.474Z,9.33
2023-04-28T20:10:36.410Z,9.33
2023-04-28T20:13:03.260Z,9.33
2023-04-28T20:15:30.211Z,9.30
2023-04-28T20:17:57.316Z,9.26
2023-04-28T20:20:24.298Z,9.22
2023-04-28T20:22:51.154Z,9.16
2023-04-28T20:25:18.122Z,9.15
2023-04-28T20:27:49.848Z,9.12
2023-04-28T20:30:16.942Z,9.11
2023-04-28T20:32:44.600Z,9.10
2023-04-28T20:35:12.133Z,9.09
2023-04-28T20:37:39.655Z,9.12
2023-04-28T20:40:07.813Z,9.11
2023-04-28T20:42:34.714Z,9.05
2023-04-28T20:45:02.330Z,9.03
2023-04-28T20:47:29.132Z,8.97
2023-04-28T20:49:56.140Z,8.99
2023-04-28T20:52:23.051Z,8.85
2023-04-28T20:54:49.955Z,8.80
2023-04-28T20:57:16.692Z,8.83
2023-04-28T20:59:43.867Z,8.79
2023-04-28T21:02:11.101Z,8.80
2023-04-28T21:04:38.090Z,8.76
2023-04-28T21:07:04.986Z,8.74
2023-04-28T21:09:31.943Z,8.76
2023-04-28T21:11:58.800Z,8.75
2023-04-28T21:14:25.799Z,8.75
2023-04-28T21:16:52.641Z,8.78
2023-04-28T21:19:19.580Z,8.76
2023-04-28T21:21:46.351Z,8.73
2023-04-28T21:24:14.147Z,8.78
2023-04-28T21:26:40.969Z,8.76
2023-04-28T21:29:09.265Z,8.75
2023-04-28T21:31:36.353Z,8.75
2023-04-28T21:34:03.435Z,8.73
2023-04-28T21:36:30.893Z,8.72
2023-04-28T21:38:57.901Z,8.72
2023-04-28T21:41:25.519Z,8.73
2023-04-28T21:43:52.702Z,8.72
2023-04-28T21:46:19.639Z,8.72
2023-04-28T21:48:47.136Z,8.65
2023-04-28T21:51:14.556Z,8.65
2023-04-28T21:53:41.524Z,8.63
2023-04-28T21:56:08.427Z,8.66
2023-04-28T21:58:35.980Z,8.65
2023-04-28T22:01:03.577Z,8.68
2023-04-28T22:03:31.718Z,8.66
2023-04-28T22:05:59.084Z,8.68
2023-04-28T22:08:26.107Z,8.68
2023-04-28T22:10:52.881Z,8.63
2023-04-28T22:13:19.848Z,8.62
2023-04-28T22:15:46.724Z,8.64
2023-04-28T22:18:14.069Z,8.63
2023-04-28T22:20:40.917Z,8.64
2023-04-28T22:23:08.522Z,8.63
2023-04-28T22:25:35.594Z,8.61
2023-04-28T22:28:03.027Z,8.59
2023-04-28T22:30:32.848Z,8.58
2023-04-28T22:33:00.107Z,8.55
2023-04-28T22:35:27.241Z,8.52
2023-04-28T22:37:54.254Z,8.55
2023-04-28T22:40:21.684Z,8.55
2023-04-28T22:42:49.122Z,8.54
2023-04-28T22:45:15.948Z,8.55
2023-04-28T22:47:43.603Z,8.55
2023-04-28T22:50:11.623Z,8.56
2023-04-28T22:52:38.713Z,8.54
2023-04-28T22:55:06.666Z,8.55
2023-04-28T22:57:33.813Z,8.57
2023-04-28T23:00:00.710Z,8.58
2023-04-28T23:02:27.710Z,8.56
2023-04-28T23:04:54.831Z,8.58
2023-04-28T23:07:21.907Z,8.60
2023-04-28T23:09:48.968Z,8.59
2023-04-28T23:12:16.658Z,8.61
2023-04-28T23:14:43.536Z,8.61
2023-04-28T23:17:10.836Z,8.62
2023-04-28T23:19:39.271Z,8.62
2023-04-28T23:22:07.959Z,8.61
2023-04-28T23:24:37.090Z,8.63
2023-04-28T23:27:04.799Z,8.62
2023-04-28T23:29:32.301Z,8.64
2023-04-28T23:31:59.698Z,8.63
2023-04-28T23:34:26.894Z,8.65
2023-04-28T23:36:54.048Z,8.67
2023-04-28T23:39:21.068Z,8.65
2023-04-28T23:41:47.995Z,8.67
2023-04-28T23:44:14.987Z,8.67
2023-04-28T23:46:42.058Z,8.68
2023-04-28T23:49:08.982Z,8.69
2023-04-28T23:51:36.169Z,8.69
2023-04-28T23:54:03.768Z,8.69
2023-04-28T23:56:31.708Z,8.71
2023-04-28T23:58:58.574Z,8.71
